sensor_id;sensor_type;location;lat;lon;timestamp;pressure;altitude;pressure_sealevel;temperature;humidity
62057;BME280;48016;50.284;18.860;2023-09-07T20:59:32;98947.14;;;17.58;69.79
62057;BME280;48016;50.284;18.860;2023-09-07T21:01:58;98950.79;;;17.53;69.39
62057;BME280;48016;50.284;18.860;2023-09-07T21:04:26;98949.16;;;17.52;69.30
62057;BME280;48016;50.284;18.860;2023-09-07T21:06:54;98947.82;;;17.50;69.76
62057;BME280;48016;50.284;18.860;2023-09-07T21:10:14;98949.11;;;17.50;70.28
62057;BME280;48016;50.284;18.860;2023-09-07T21:12:42;98950.95;;;17.45;69.86
62057;BME280;48016;50.284;18.860;2023-09-07T21:15:09;98950.81;;;17.43;69.81
62057;BME280;48016;50.284;18.860;2023-09-07T21:17:40;98950.43;;;17.40;70.16
62057;BME280;48016;50.284;18.860;2023-09-07T21:20:08;98953.73;;;17.37;70.47
62057;BME280;48016;50.284;18.860;2023-09-07T21:22:35;98949.61;;;17.33;70.44
62057;BME280;48016;50.284;18.860;2023-09-07T21:25:02;98948.88;;;17.30;70.67
62057;BME280;48016;50.284;18.860;2023-09-07T21:27:28;98949.42;;;17.29;70.34
62057;BME280;48016;50.284;18.860;2023-09-07T21:29:55;98951.62;;;17.28;70.50
62057;BME280;48016;50.284;18.860;2023-09-07T21:32:22;98952.39;;;17.25;70.78
62057;BME280;48016;50.284;18.860;2023-09-07T21:34:50;98952.02;;;17.23;70.22
62057;BME280;48016;50.284;18.860;2023-09-07T21:37:17;98951.50;;;17.20;70.74
62057;BME280;48016;50.284;18.860;2023-09-07T21:39:47;98954.14;;;17.18;71.13
62057;BME280;48016;50.284;18.860;2023-09-07T21:42:17;98954.20;;;17.15;71.71
62057;BME280;48016;50.284;18.860;2023-09-07T21:44:43;98953.69;;;17.12;72.03
62057;BME280;48016;50.284;18.860;2023-09-07T21:47:10;98948.34;;;17.10;72.15
62057;BME280;48016;50.284;18.860;2023-09-07T21:49:37;98948.52;;;17.06;72.42
62057;BME280;48016;50.284;18.860;2023-09-07T21:52:04;98946.02;;;17.04;71.77
62057;BME280;48016;50.284;18.860;2023-09-07T21:54:31;98945.75;;;17.02;72.17
62057;BME280;48016;50.284;18.860;2023-09-07T21:56:58;98945.94;;;16.99;72.58
62057;BME280;48016;50.284;18.860;2023-09-07T21:59:24;98944.32;;;16.97;72.27
62057;BME280;48016;50.284;18.860;2023-09-07T22:01:52;98946.13;;;16.93;72.72
62057;BME280;48016;50.284;18.860;2023-09-07T22:04:19;98942.81;;;16.90;72.42
62057;BME280;48016;50.284;18.860;2023-09-07T22:06:46;98940.27;;;16.86;72.76
62057;BME280;48016;50.284;18.860;2023-09-07T22:09:13;98942.30;;;16.81;73.19
62057;BME280;48016;50.284;18.860;2023-09-07T22:11:39;98941.27;;;16.74;73.44
62057;BME280;48016;50.284;18.860;2023-09-07T22:14:06;98944.99;;;16.70;73.72
62057;BME280;48016;50.284;18.860;2023-09-07T22:16:35;98940.91;;;16.66;73.22
62057;BME280;48016;50.284;18.860;2023-09-07T22:19:04;98941.74;;;16.64;73.89
62057;BME280;48016;50.284;18.860;2023-09-07T22:21:31;98941.92;;;16.61;73.60
62057;BME280;48016;50.284;18.860;2023-09-07T22:23:57;98941.65;;;16.58;74.00
62057;BME280;48016;50.284;18.860;2023-09-07T22:26:24;98941.94;;;16.55;73.64
62057;BME280;48016;50.284;18.860;2023-09-07T22:28:51;98940.60;;;16.51;74.52
62057;BME280;48016;50.284;18.860;2023-09-07T22:31:19;98939.84;;;16.47;74.46
62057;BME280;48016;50.284;18.860;2023-09-07T22:33:46;98938.59;;;16.44;74.57
62057;BME280;48016;50.284;18.860;2023-09-07T22:36:13;98941.70;;;16.42;74.37
62057;BME280;48016;50.284;18.860;2023-09-07T22:38:39;98943.36;;;16.39;75.08
62057;BME280;48016;50.284;18.860;2023-09-07T22:41:06;98939.92;;;16.37;75.29
62057;BME280;48016;50.284;18.860;2023-09-07T22:43:33;98942.33;;;16.35;75.34
62057;BME280;48016;50.284;18.860;2023-09-07T22:45:59;98943.48;;;16.32;75.82
62057;BME280;48016;50.284;18.860;2023-09-07T22:48:26;98945.08;;;16.31;76.21
62057;BME280;48016;50.284;18.860;2023-09-07T22:50:53;98944.04;;;16.28;76.69
62057;BME280;48016;50.284;18.860;2023-09-07T22:53:19;98941.05;;;16.25;76.36
62057;BME280;48016;50.284;18.860;2023-09-07T22:55:48;98943.63;;;16.23;76.58
62057;BME280;48016;50.284;18.860;2023-09-07T22:58:17;98941.81;;;16.22;76.53
62057;BME280;48016;50.284;18.860;2023-09-07T23:00:47;98940.58;;;16.20;76.98
62057;BME280;48016;50.284;18.860;2023-09-07T23:03:15;98941.51;;;16.17;77.32
62057;BME280;48016;50.284;18.860;2023-09-07T23:05:42;98938.23;;;16.17;76.65
62057;BME280;48016;50.284;18.860;2023-09-07T23:08:10;98941.83;;;16.15;77.19
62057;BME280;48016;50.284;18.860;2023-09-07T23:10:38;98941.67;;;16.11;77.35
62057;BME280;48016;50.284;18.860;2023-09-07T23:13:05;98937.58;;;16.09;77.46
62057;BME280;48016;50.284;18.860;2023-09-07T23:15:34;98934.30;;;16.11;77.11
62057;BME280;48016;50.284;18.860;2023-09-07T23:18:01;98938.51;;;16.09;77.28
62057;BME280;48016;50.284;18.860;2023-09-07T23:20:28;98936.98;;;16.08;77.18
62057;BME280;48016;50.284;18.860;2023-09-07T23:22:55;98935.31;;;16.06;77.47
62057;BME280;48016;50.284;18.860;2023-09-07T23:25:22;98932.95;;;16.06;77.54
62057;BME280;48016;50.284;18.860;2023-09-07T23:27:50;98934.98;;;16.04;77.59
62057;BME280;48016;50.284;18.860;2023-09-07T23:30:18;98935.08;;;16.00;78.16
62057;BME280;48016;50.284;18.860;2023-09-07T23:32:46;98937.06;;;15.96;78.27
62057;BME280;48016;50.284;18.860;2023-09-07T23:35:13;98932.21;;;15.91;78.52
62057;BME280;48016;50.284;18.860;2023-09-07T23:37:40;98930.13;;;15.89;78.51
62057;BME280;48016;50.284;18.860;2023-09-07T23:40:08;98934.61;;;15.84;78.60
62057;BME280;48016;50.284;18.860;2023-09-07T23:42:36;98927.31;;;15.78;78.82
62057;BME280;48016;50.284;18.860;2023-09-07T23:45:04;98926.11;;;15.74;78.85
62057;BME280;48016;50.284;18.860;2023-09-07T23:47:31;98926.88;;;15.71;79.07
62057;BME280;48016;50.284;18.860;2023-09-07T23:49:58;98926.27;;;15.68;78.91
62057;BME280;48016;50.284;18.860;2023-09-07T23:52:26;98925.59;;;15.64;79.33
62057;BME280;48016;50.284;18.860;2023-09-07T23:54:53;98927.45;;;15.61;79.37
62057;BME280;48016;50.284;18.860;2023-09-07T23:57:19;98925.31;;;15.60;79.23
62057;BME280;48016;50.284;18.860;2023-09-07T23:59:46;98923.89;;;15.57;79.75
